sensor_id;sensor_type;location;lat;lon;timestamp;pressure;altitude;pressure_sealevel;temperature;humidity
22580;BME280;11456;47.030;15.396;2023-01-10T00:01:50;96422.03;;;5.08;100.00
22580;BME280;11456;47.030;15.396;2023-01-10T00:04:17;96426.00;;;5.49;100.00
22580;BME280;11456;47.030;15.396;2023-01-10T00:06:43;96432.06;;;5.24;100.00
22580;BME280;11456;47.030;15.396;2023-01-10T00:09:10;96431.56;;;5.11;100.00
22580;BME280;11456;47.030;15.396;2023-01-10T00:11:36;96433.72;;;5.25;100.00
22580;BME280;11456;47.030;15.396;2023-01-10T00:14:22;96433.66;;;5.17;100.00
22580;BME280;11456;47.030;15.396;2023-01-10T00:16:48;96433.81;;;5.06;100.00
22580;BME280;11456;47.030;15.396;2023-01-10T00:19:15;96437.44;;;5.14;100.00
22580;BME280;11456;47.030;15.396;2023-01-10T00:21:41;96442.53;;;5.08;100.00
22580;BME280;11456;47.030;15.396;2023-01-10T00:24:09;96438.97;;;4.90;100.00
22580;BME280;11456;47.030;15.396;2023-01-10T00:26:44;96429.03;;;5.09;100.00
22580;BME280;11456;47.030;15.396;2023-01-10T00:29:21;96444.09;;;5.28;100.00
22580;BME280;11456;47.030;15.396;2023-01-10T00:31:48;96458.34;;;4.92;100.00
22580;BME280;11456;47.030;15.396;2023-01-10T00:34:15;96439.28;;;5.32;100.00
22580;BME280;11456;47.030;15.396;2023-01-10T00:36:41;96457.75;;;4.98;100.00
22580;BME280;11456;47.030;15.396;2023-01-10T00:39:08;96461.66;;;5.03;100.00
22580;BME280;11456;47.030;15.396;2023-01-10T00:41:36;96445.41;;;4.97;100.00
22580;BME280;11456;47.030;15.396;2023-01-10T00:44:21;96460.31;;;4.90;100.00
22580;BME280;11456;47.030;15.396;2023-01-10T00:46:48;96457.25;;;4.84;100.00
22580;BME280;11456;47.030;15.396;2023-01-10T00:49:15;96457.09;;;4.86;100.00
22580;BME280;11456;47.030;15.396;2023-01-10T00:51:42;96462.03;;;5.08;100.00
22580;BME280;11456;47.030;15.396;2023-01-10T00:54:08;96465.63;;;4.90;100.00
22580;BME280;11456;47.030;15.396;2023-01-10T00:56:35;96475.13;;;5.02;100.00
22580;BME280;11456;47.030;15.396;2023-01-10T00:59:03;96463.16;;;5.78;100.00
22580;BME280;11456;47.030;15.396;2023-01-10T01:01:30;96467.75;;;5.23;100.00
22580;BME280;11456;47.030;15.396;2023-01-10T01:03:56;96476.81;;;5.03;100.00
22580;BME280;11456;47.030;15.396;2023-01-10T01:06:24;96486.00;;;4.91;100.00
22580;BME280;11456;47.030;15.396;2023-01-10T01:08:51;96487.69;;;5.19;100.00
22580;BME280;11456;47.030;15.396;2023-01-10T01:11:18;96484.31;;;4.90;100.00
22580;BME280;11456;47.030;15.396;2023-01-10T01:13:44;96492.03;;;4.93;100.00
22580;BME280;11456;47.030;15.396;2023-01-10T01:16:11;96496.09;;;4.97;100.00
22580;BME280;11456;47.030;15.396;2023-01-10T01:18:38;96493.69;;;4.94;100.00
22580;BME280;11456;47.030;15.396;2023-01-10T01:21:04;96502.19;;;4.79;100.00
22580;BME280;11456;47.030;15.396;2023-01-10T01:23:32;96501.94;;;5.10;100.00
22580;BME280;11456;47.030;15.396;2023-01-10T01:25:59;96508.84;;;4.93;100.00
22580;BME280;11456;47.030;15.396;2023-01-10T01:28:26;96499.22;;;4.82;100.00
22580;BME280;11456;47.030;15.396;2023-01-10T01:30:52;96498.03;;;5.59;100.00
22580;BME280;11456;47.030;15.396;2023-01-10T01:33:19;96506.69;;;5.06;100.00
22580;BME280;11456;47.030;15.396;2023-01-10T01:35:46;96509.44;;;4.97;100.00
22580;BME280;11456;47.030;15.396;2023-01-10T01:38:13;96510.88;;;4.81;100.00
22580;BME280;11456;47.030;15.396;2023-01-10T01:40:40;96519.63;;;4.64;100.00
22580;BME280;11456;47.030;15.396;2023-01-10T01:45:45;96517.81;;;5.02;100.00
22580;BME280;11456;47.030;15.396;2023-01-10T01:48:17;96528.94;;;4.88;100.00
22580;BME280;11456;47.030;15.396;2023-01-10T01:53:27;96512.81;;;5.53;100.00
22580;BME280;11456;47.030;15.396;2023-01-10T01:55:56;96519.31;;;5.14;100.00
22580;BME280;11456;47.030;15.396;2023-01-10T01:58:26;96504.78;;;5.26;100.00
22580;BME280;11456;47.030;15.396;2023-01-10T02:00:57;96526.22;;;5.07;100.00
22580;BME280;11456;47.030;15.396;2023-01-10T02:03:24;96520.56;;;4.82;100.00
22580;BME280;11456;47.030;15.396;2023-01-10T02:05:51;96520.94;;;4.97;100.00
22580;BME280;11456;47.030;15.396;2023-01-10T02:08:18;96509.31;;;5.53;100.00
22580;BME280;11456;47.030;15.396;2023-01-10T02:10:52;96518.66;;;5.12;100.00
22580;BME280;11456;47.030;15.396;2023-01-10T02:13:21;96511.38;;;4.95;100.00
22580;BME280;11456;47.030;15.396;2023-01-10T02:15:49;96524.84;;;5.03;100.00
22580;BME280;11456;47.030;15.396;2023-01-10T02:18:16;96517.16;;;5.27;100.00
22580;BME280;11456;47.030;15.396;2023-01-10T02:31:36;96505.66;;;5.72;94.19
22580;BME280;11456;47.030;15.396;2023-01-10T02:34:08;96502.63;;;5.67;92.04
22580;BME280;11456;47.030;15.396;2023-01-10T02:42:07;96503.13;;;6.51;75.32
22580;BME280;11456;47.030;15.396;2023-01-10T02:47:04;96511.44;;;6.91;68.41
22580;BME280;11456;47.030;15.396;2023-01-10T02:52:08;96495.38;;;7.59;63.22
22580;BME280;11456;47.030;15.396;2023-01-10T02:54:35;96509.72;;;7.42;61.17
22580;BME280;11456;47.030;15.396;2023-01-10T02:59:59;96500.03;;;7.49;59.32
22580;BME280;11456;47.030;15.396;2023-01-10T03:14:55;96525.34;;;8.13;56.23
22580;BME280;11456;47.030;15.396;2023-01-10T03:17:22;96532.03;;;8.09;55.38
22580;BME280;11456;47.030;15.396;2023-01-10T03:19:52;96538.44;;;8.24;57.46
22580;BME280;11456;47.030;15.396;2023-01-10T03:22:20;96532.69;;;8.11;54.72
22580;BME280;11456;47.030;15.396;2023-01-10T03:24:48;96522.66;;;8.21;54.75
22580;BME280;11456;47.030;15.396;2023-01-10T03:27:23;96540.31;;;8.31;53.55
22580;BME280;11456;47.030;15.396;2023-01-10T03:30:00;96544.97;;;8.29;54.48
22580;BME280;11456;47.030;15.396;2023-01-10T03:32:28;96552.19;;;8.29;54.58
22580;BME280;11456;47.030;15.396;2023-01-10T03:34:55;96549.47;;;8.21;53.99
22580;BME280;11456;47.030;15.396;2023-01-10T03:40:20;96559.19;;;8.14;53.48
22580;BME280;11456;47.030;15.396;2023-01-10T03:43:02;96564.25;;;8.25;53.13
22580;BME280;11456;47.030;15.396;2023-01-10T03:45:54;96574.47;;;8.29;51.63
22580;BME280;11456;47.030;15.396;2023-01-10T03:48:25;96577.06;;;8.79;51.99
22580;BME280;11456;47.030;15.396;2023-01-10T03:50:52;96584.09;;;8.48;51.17
22580;BME280;11456;47.030;15.396;2023-01-10T03:53:19;96581.06;;;8.43;52.10
22580;BME280;11456;47.030;15.396;2023-01-10T03:55:46;96596.16;;;8.36;51.06
22580;BME280;11456;47.030;15.396;2023-01-10T03:58:13;96605.81;;;8.29;50.84
22580;BME280;11456;47.030;15.396;2023-01-10T04:00:39;96600.84;;;8.42;50.81
22580;BME280;11456;47.030;15.396;2023-01-10T04:03:06;96596.16;;;8.36;50.79
22580;BME280;11456;47.030;15.396;2023-01-10T04:05:35;96601.34;;;8.45;50.71
22580;BME280;11456;47.030;15.396;2023-01-10T04:08:01;96614.97;;;8.44;50.57
22580;BME280;11456;47.030;15.396;2023-01-10T04:10:28;96608.88;;;8.34;51.36
22580;BME280;11456;47.030;15.396;2023-01-10T04:12:58;96619.94;;;8.31;51.17
22580;BME280;11456;47.030;15.396;2023-01-10T04:15:24;96627.19;;;8.47;49.90
22580;BME280;11456;47.030;15.396;2023-01-10T04:17:51;96616.00;;;8.67;49.94
22580;BME280;11456;47.030;15.396;2023-01-10T04:20:17;96619.34;;;8.61;50.03
22580;BME280;11456;47.030;15.396;2023-01-10T04:22:44;96618.75;;;8.33;49.15
22580;BME280;11456;47.030;15.396;2023-01-10T04:25:11;96627.03;;;8.48;50.35
22580;BME280;11456;47.030;15.396;2023-01-10T04:27:37;96636.44;;;8.60;49.50
22580;BME280;11456;47.030;15.396;2023-01-10T04:30:04;96632.72;;;8.37;49.68
22580;BME280;11456;47.030;15.396;2023-01-10T04:32:30;96635.72;;;8.42;50.02
22580;BME280;11456;47.030;15.396;2023-01-10T04:34:57;96644.34;;;8.62;49.53
22580;BME280;11456;47.030;15.396;2023-01-10T04:37:24;96646.03;;;8.63;49.81
22580;BME280;11456;47.030;15.396;2023-01-10T04:39:50;96652.19;;;8.47;49.51
22580;BME280;11456;47.030;15.396;2023-01-10T04:42:16;96659.53;;;8.45;49.20
22580;BME280;11456;47.030;15.396;2023-01-10T04:44:43;96659.91;;;8.50;49.91
22580;BME280;11456;47.030;15.396;2023-01-10T04:47:09;96661.59;;;8.59;49.36
22580;BME280;11456;47.030;15.396;2023-01-10T04:49:36;96661.94;;;8.56;49.07
22580;BME280;11456;47.030;15.396;2023-01-10T04:52:03;96660.94;;;8.65;47.95
22580;BME280;11456;47.030;15.396;2023-01-10T04:54:29;96672.59;;;8.40;48.53
22580;BME280;11456;47.030;15.396;2023-01-10T04:56:56;96672.50;;;8.66;48.16
22580;BME280;11456;47.030;15.396;2023-01-10T04:59:22;96670.56;;;9.00;49.28
22580;BME280;11456;47.030;15.396;2023-01-10T05:01:49;96685.63;;;8.77;48.19
22580;BME280;11456;47.030;15.396;2023-01-10T05:04:15;96676.34;;;8.55;48.16
22580;BME280;11456;47.030;15.396;2023-01-10T05:06:44;96678.69;;;8.58;48.66
22580;BME280;11456;47.030;15.396;2023-01-10T05:09:10;96678.38;;;8.61;49.23
22580;BME280;11456;47.030;15.396;2023-01-10T05:11:37;96696.50;;;8.67;47.83
22580;BME280;11456;47.030;15.396;2023-01-10T05:14:03;96711.28;;;8.63;47.42
22580;BME280;11456;47.030;15.396;2023-01-10T05:16:30;96699.72;;;8.79;48.08
22580;BME280;11456;47.030;15.396;2023-01-10T05:18:56;96699.38;;;8.74;47.04
22580;BME280;11456;47.030;15.396;2023-01-10T05:21:23;96713.66;;;8.74;47.45
22580;BME280;11456;47.030;15.396;2023-01-10T05:23:49;96714.13;;;8.78;48.33
22580;BME280;11456;47.030;15.396;2023-01-10T05:26:17;96723.44;;;9.00;47.54
22580;BME280;11456;47.030;15.396;2023-01-10T05:28:44;96737.47;;;8.77;47.14
22580;BME280;11456;47.030;15.396;2023-01-10T05:31:12;96731.75;;;8.72;46.52
22580;BME280;11456;47.030;15.396;2023-01-10T05:33:42;96728.56;;;8.69;47.57
22580;BME280;11456;47.030;15.396;2023-01-10T05:36:09;96731.38;;;8.59;47.92
22580;BME280;11456;47.030;15.396;2023-01-10T05:38:35;96747.19;;;8.78;47.11
22580;BME280;11456;47.030;15.396;2023-01-10T05:41:02;96754.09;;;8.81;48.33
22580;BME280;11456;47.030;15.396;2023-01-10T05:43:28;96752.09;;;8.91;48.49
22580;BME280;11456;47.030;15.396;2023-01-10T05:45:55;96744.84;;;8.83;47.14
22580;BME280;11456;47.030;15.396;2023-01-10T05:48:22;96748.28;;;9.02;47.24
22580;BME280;11456;47.030;15.396;2023-01-10T05:50:49;96773.84;;;8.72;46.72
22580;BME280;11456;47.030;15.396;2023-01-10T05:53:16;96766.28;;;8.67;47.08
22580;BME280;11456;47.030;15.396;2023-01-10T05:55:43;96763.66;;;8.75;47.40
22580;BME280;11456;47.030;15.396;2023-01-10T05:58:10;96771.69;;;8.75;47.53
22580;BME280;11456;47.030;15.396;2023-01-10T06:00:36;96779.72;;;8.67;47.06
22580;BME280;11456;47.030;15.396;2023-01-10T06:03:05;96775.78;;;8.54;46.48
22580;BME280;11456;47.030;15.396;2023-01-10T06:05:32;96782.72;;;8.64;46.87
22580;BME280;11456;47.030;15.396;2023-01-10T06:08:00;96794.09;;;8.58;47.25
22580;BME280;11456;47.030;15.396;2023-01-10T06:10:26;96793.63;;;8.71;47.30
22580;BME280;11456;47.030;15.396;2023-01-10T06:12:53;96795.25;;;8.98;46.33
22580;BME280;11456;47.030;15.396;2023-01-10T06:15:20;96802.53;;;8.71;46.66
22580;BME280;11456;47.030;15.396;2023-01-10T06:17:46;96811.63;;;8.78;46.89
22580;BME280;11456;47.030;15.396;2023-01-10T06:20:13;96810.31;;;8.82;47.41
22580;BME280;11456;47.030;15.396;2023-01-10T06:22:40;96821.56;;;8.52;46.47
22580;BME280;11456;47.030;15.396;2023-01-10T06:25:10;96829.66;;;8.60;47.02
22580;BME280;11456;47.030;15.396;2023-01-10T06:27:41;96823.34;;;8.77;46.45
22580;BME280;11456;47.030;15.396;2023-01-10T06:30:08;96844.41;;;8.56;47.00
22580;BME280;11456;47.030;15.396;2023-01-10T06:32:35;96853.75;;;8.52;46.06
22580;BME280;11456;47.030;15.396;2023-01-10T06:35:02;96850.44;;;8.50;47.06
22580;BME280;11456;47.030;15.396;2023-01-10T06:37:29;96856.63;;;8.51;47.39
22580;BME280;11456;47.030;15.396;2023-01-10T06:39:55;96859.88;;;8.62;47.41
22580;BME280;11456;47.030;15.396;2023-01-10T06:42:22;96866.94;;;8.63;47.41
22580;BME280;11456;47.030;15.396;2023-01-10T06:44:48;96867.25;;;8.60;47.86
22580;BME280;11456;47.030;15.396;2023-01-10T06:47:15;96873.94;;;8.90;46.15
22580;BME280;11456;47.030;15.396;2023-01-10T06:49:41;96887.28;;;9.08;45.97
22580;BME280;11456;47.030;15.396;2023-01-10T06:52:08;96889.75;;;8.67;47.65
22580;BME280;11456;47.030;15.396;2023-01-10T06:54:34;96895.13;;;8.67;47.56
22580;BME280;11456;47.030;15.396;2023-01-10T06:57:00;96907.50;;;8.60;47.87
22580;BME280;11456;47.030;15.396;2023-01-10T06:59:27;96912.28;;;8.49;48.11
22580;BME280;11456;47.030;15.396;2023-01-10T07:01:53;96917.16;;;8.79;47.25
22580;BME280;11456;47.030;15.396;2023-01-10T07:04:20;96929.75;;;8.78;46.69
22580;BME280;11456;47.030;15.396;2023-01-10T07:06:47;96938.28;;;8.74;47.22
22580;BME280;11456;47.030;15.396;2023-01-10T07:09:13;96934.19;;;8.62;47.22
22580;BME280;11456;47.030;15.396;2023-01-10T07:11:40;96945.06;;;8.60;47.40
22580;BME280;11456;47.030;15.396;2023-01-10T07:14:06;96952.84;;;9.31;45.75
22580;BME280;11456;47.030;15.396;2023-01-10T07:16:34;96953.97;;;8.61;47.71
22580;BME280;11456;47.030;15.396;2023-01-10T07:19:01;96955.44;;;8.81;48.12
22580;BME280;11456;47.030;15.396;2023-01-10T07:21:27;96970.78;;;8.89;47.23
22580;BME280;11456;47.030;15.396;2023-01-10T07:23:54;96975.03;;;8.73;47.84
22580;BME280;11456;47.030;15.396;2023-01-10T07:26:20;96981.72;;;8.69;47.71
22580;BME280;11456;47.030;15.396;2023-01-10T07:28:49;96983.19;;;8.46;48.09
22580;BME280;11456;47.030;15.396;2023-01-10T07:31:19;96992.41;;;8.87;48.35
22580;BME280;11456;47.030;15.396;2023-01-10T07:33:49;97001.16;;;8.71;48.32
22580;BME280;11456;47.030;15.396;2023-01-10T07:36:16;97004.47;;;8.65;48.63
22580;BME280;11456;47.030;15.396;2023-01-10T07:38:42;96999.91;;;8.83;48.03
22580;BME280;11456;47.030;15.396;2023-01-10T07:41:09;97002.94;;;8.80;48.17
22580;BME280;11456;47.030;15.396;2023-01-10T07:43:35;97009.78;;;8.75;47.99
22580;BME280;11456;47.030;15.396;2023-01-10T07:46:03;97015.66;;;8.78;48.68
22580;BME280;11456;47.030;15.396;2023-01-10T07:48:30;97020.19;;;9.04;49.84
22580;BME280;11456;47.030;15.396;2023-01-10T07:50:57;97021.78;;;8.89;48.49
22580;BME280;11456;47.030;15.396;2023-01-10T07:53:24;97019.25;;;8.87;47.93
22580;BME280;11456;47.030;15.396;2023-01-10T07:55:51;97024.06;;;8.83;48.15
22580;BME280;11456;47.030;15.396;2023-01-10T07:58:18;97034.41;;;9.22;47.85
22580;BME280;11456;47.030;15.396;2023-01-10T08:00:44;97029.88;;;8.97;48.09
22580;BME280;11456;47.030;15.396;2023-01-10T08:03:11;97048.00;;;8.95;48.03
22580;BME280;11456;47.030;15.396;2023-01-10T08:05:38;97051.72;;;8.58;48.46
22580;BME280;11456;47.030;15.396;2023-01-10T08:08:05;97048.69;;;8.97;46.98
22580;BME280;11456;47.030;15.396;2023-01-10T08:10:32;97054.09;;;9.05;47.94
22580;BME280;11456;47.030;15.396;2023-01-10T08:12:59;97067.69;;;9.03;47.50
22580;BME280;11456;47.030;15.396;2023-01-10T08:15:42;97066.47;;;8.98;48.08
22580;BME280;11456;47.030;15.396;2023-01-10T08:18:10;97079.41;;;9.46;46.71
22580;BME280;11456;47.030;15.396;2023-01-10T08:20:37;97093.41;;;9.06;48.07
22580;BME280;11456;47.030;15.396;2023-01-10T08:23:03;97084.91;;;8.93;47.25
22580;BME280;11456;47.030;15.396;2023-01-10T08:25:30;97095.31;;;9.65;47.46
22580;BME280;11456;47.030;15.396;2023-01-10T08:27:56;97099.63;;;9.32;48.34
22580;BME280;11456;47.030;15.396;2023-01-10T08:30:23;97116.06;;;9.29;48.89
22580;BME280;11456;47.030;15.396;2023-01-10T08:32:50;97123.75;;;9.24;48.55
22580;BME280;11456;47.030;15.396;2023-01-10T08:35:17;97128.09;;;9.43;48.37
22580;BME280;11456;47.030;15.396;2023-01-10T08:37:44;97127.03;;;9.61;47.59
22580;BME280;11456;47.030;15.396;2023-01-10T08:40:10;97138.97;;;9.59;48.39
22580;BME280;11456;47.030;15.396;2023-01-10T08:42:37;97129.47;;;9.81;47.73
22580;BME280;11456;47.030;15.396;2023-01-10T08:45:04;97143.50;;;9.66;47.87
22580;BME280;11456;47.030;15.396;2023-01-10T08:47:30;97146.59;;;9.80;47.93
22580;BME280;11456;47.030;15.396;2023-01-10T08:49:57;97156.00;;;9.76;47.45
22580;BME280;11456;47.030;15.396;2023-01-10T08:52:23;97152.16;;;10.12;47.06
22580;BME280;11456;47.030;15.396;2023-01-10T08:54:50;97158.81;;;10.00;47.73
22580;BME280;11456;47.030;15.396;2023-01-10T08:57:16;97169.09;;;10.38;46.56
22580;BME280;11456;47.030;15.396;2023-01-10T08:59:43;97174.09;;;10.25;46.48
22580;BME280;11456;47.030;15.396;2023-01-10T09:02:11;97177.63;;;10.18;46.37
22580;BME280;11456;47.030;15.396;2023-01-10T09:04:38;97187.34;;;10.53;47.23
22580;BME280;11456;47.030;15.396;2023-01-10T09:07:05;97188.06;;;10.71;47.13
22580;BME280;11456;47.030;15.396;2023-01-10T09:09:31;97188.06;;;10.71;46.01
22580;BME280;11456;47.030;15.396;2023-01-10T09:11:58;97193.47;;;10.79;44.73
22580;BME280;11456;47.030;15.396;2023-01-10T09:14:24;97193.53;;;11.27;43.53
22580;BME280;11456;47.030;15.396;2023-01-10T09:16:51;97206.66;;;11.22;44.31
22580;BME280;11456;47.030;15.396;2023-01-10T09:19:17;97196.91;;;11.70;45.35
22580;BME280;11456;47.030;15.396;2023-01-10T09:21:44;97205.00;;;11.62;44.71
22580;BME280;11456;47.030;15.396;2023-01-10T09:24:10;97208.69;;;11.20;43.96
22580;BME280;11456;47.030;15.396;2023-01-10T09:26:37;97224.88;;;11.37;45.64
22580;BME280;11456;47.030;15.396;2023-01-10T09:29:04;97213.44;;;11.43;44.54
22580;BME280;11456;47.030;15.396;2023-01-10T09:31:30;97214.56;;;11.73;44.46
22580;BME280;11456;47.030;15.396;2023-01-10T09:33:57;97230.59;;;11.66;45.60
22580;BME280;11456;47.030;15.396;2023-01-10T09:36:23;97238.53;;;12.08;45.40
22580;BME280;11456;47.030;15.396;2023-01-10T09:38:50;97228.72;;;12.15;42.34
22580;BME280;11456;47.030;15.396;2023-01-10T09:41:23;97237.22;;;12.51;42.71
22580;BME280;11456;47.030;15.396;2023-01-10T09:51:34;97260.13;;;11.51;42.81
22580;BME280;11456;47.030;15.396;2023-01-10T09:54:02;97273.59;;;11.51;43.14
22580;BME280;11456;47.030;15.396;2023-01-10T09:56:38;97271.81;;;10.52;43.70
22580;BME280;11456;47.030;15.396;2023-01-10T09:59:08;97285.81;;;11.05;43.09
22580;BME280;11456;47.030;15.396;2023-01-10T10:01:36;97274.75;;;11.24;43.95
22580;BME280;11456;47.030;15.396;2023-01-10T10:06:30;97289.53;;;11.20;43.30
22580;BME280;11456;47.030;15.396;2023-01-10T10:08:59;97282.13;;;11.22;42.78
22580;BME280;11456;47.030;15.396;2023-01-10T10:14:17;97284.75;;;11.89;43.33
22580;BME280;11456;47.030;15.396;2023-01-10T10:22:05;97282.19;;;12.03;43.05
22580;BME280;11456;47.030;15.396;2023-01-10T10:32:40;97292.38;;;12.57;42.34
22580;BME280;11456;47.030;15.396;2023-01-10T10:35:11;97299.47;;;12.66;42.00
22580;BME280;11456;47.030;15.396;2023-01-10T10:37:46;97299.81;;;13.02;42.03
22580;BME280;11456;47.030;15.396;2023-01-10T10:42:45;97307.88;;;13.72;39.15
22580;BME280;11456;47.030;15.396;2023-01-10T10:45:18;97296.56;;;13.45;40.32
22580;BME280;11456;47.030;15.396;2023-01-10T10:47:48;97308.09;;;13.00;39.56
22580;BME280;11456;47.030;15.396;2023-01-10T10:52:42;97305.88;;;12.73;40.60
22580;BME280;11456;47.030;15.396;2023-01-10T10:55:13;97303.31;;;12.79;40.18
22580;BME280;11456;47.030;15.396;2023-01-10T10:57:41;97307.78;;;12.48;40.86
22580;BME280;11456;47.030;15.396;2023-01-10T11:00:24;97317.78;;;12.31;40.67
22580;BME280;11456;47.030;15.396;2023-01-10T11:03:00;97327.25;;;11.79;42.31
22580;BME280;11456;47.030;15.396;2023-01-10T11:05:34;97320.69;;;11.81;42.74
22580;BME280;11456;47.030;15.396;2023-01-10T11:08:03;97323.03;;;12.09;43.40
22580;BME280;11456;47.030;15.396;2023-01-10T11:10:39;97331.09;;;12.17;42.24
22580;BME280;11456;47.030;15.396;2023-01-10T11:15:41;97323.84;;;12.97;41.23
22580;BME280;11456;47.030;15.396;2023-01-10T11:18:16;97326.28;;;12.75;42.51
22580;BME280;11456;47.030;15.396;2023-01-10T11:20:50;97323.31;;;12.93;41.65
22580;BME280;11456;47.030;15.396;2023-01-10T11:23:26;97320.56;;;13.17;40.46
22580;BME280;11456;47.030;15.396;2023-01-10T11:25:54;97327.47;;;13.96;39.14
22580;BME280;11456;47.030;15.396;2023-01-10T11:28:23;97341.56;;;13.69;37.80
22580;BME280;11456;47.030;15.396;2023-01-10T11:30:53;97348.66;;;13.93;39.10
22580;BME280;11456;47.030;15.396;2023-01-10T11:33:27;97313.75;;;14.58;37.04
22580;BME280;11456;47.030;15.396;2023-01-10T11:36:04;97333.09;;;13.95;37.18
22580;BME280;11456;47.030;15.396;2023-01-10T11:38:32;97352.38;;;13.92;37.74
22580;BME280;11456;47.030;15.396;2023-01-10T11:41:04;97335.69;;;13.57;36.92
22580;BME280;11456;47.030;15.396;2023-01-10T11:43:32;97350.91;;;12.80;38.76
22580;BME280;11456;47.030;15.396;2023-01-10T11:46:03;97339.00;;;12.51;40.61
22580;BME280;11456;47.030;15.396;2023-01-10T11:48:48;97345.53;;;13.28;39.45
22580;BME280;11456;47.030;15.396;2023-01-10T11:51:38;97349.06;;;13.28;38.25
22580;BME280;11456;47.030;15.396;2023-01-10T11:54:06;97345.03;;;13.24;38.38
22580;BME280;11456;47.030;15.396;2023-01-10T11:56:36;97360.50;;;12.99;39.23
22580;BME280;11456;47.030;15.396;2023-01-10T11:59:12;97351.56;;;12.91;39.28
22580;BME280;11456;47.030;15.396;2023-01-10T12:04:12;97351.13;;;14.02;37.68
22580;BME280;11456;47.030;15.396;2023-01-10T12:06:42;97368.47;;;12.84;38.08
22580;BME280;11456;47.030;15.396;2023-01-10T12:09:30;97347.75;;;14.61;37.92
22580;BME280;11456;47.030;15.396;2023-01-10T12:12:00;97346.38;;;14.27;36.31
22580;BME280;11456;47.030;15.396;2023-01-10T12:14:26;97360.97;;;15.94;35.67
22580;BME280;11456;47.030;15.396;2023-01-10T12:17:02;97359.09;;;15.95;34.09
22580;BME280;11456;47.030;15.396;2023-01-10T12:19:29;97364.50;;;16.31;34.01
22580;BME280;11456;47.030;15.396;2023-01-10T12:21:59;97366.34;;;14.26;35.92
22580;BME280;11456;47.030;15.396;2023-01-10T12:24:30;97379.09;;;14.40;36.29
22580;BME280;11456;47.030;15.396;2023-01-10T12:26:58;97379.72;;;14.05;37.45
22580;BME280;11456;47.030;15.396;2023-01-10T12:29:34;97387.97;;;13.58;36.59
22580;BME280;11456;47.030;15.396;2023-01-10T12:32:02;97379.28;;;13.93;36.09
22580;BME280;11456;47.030;15.396;2023-01-10T12:34:40;97381.41;;;15.40;35.53
22580;BME280;11456;47.030;15.396;2023-01-10T12:37:11;97391.16;;;15.19;34.33
22580;BME280;11456;47.030;15.396;2023-01-10T12:39:45;97388.34;;;13.78;36.16
22580;BME280;11456;47.030;15.396;2023-01-10T12:45:11;97377.53;;;14.46;35.94
22580;BME280;11456;47.030;15.396;2023-01-10T12:50:16;97399.34;;;15.70;34.67
22580;BME280;11456;47.030;15.396;2023-01-10T12:55:19;97405.34;;;14.77;34.83
22580;BME280;11456;47.030;15.396;2023-01-10T12:57:46;97412.31;;;15.68;32.85
22580;BME280;11456;47.030;15.396;2023-01-10T13:00:22;97407.34;;;15.13;34.14
22580;BME280;11456;47.030;15.396;2023-01-10T13:02:51;97423.53;;;15.65;33.17
22580;BME280;11456;47.030;15.396;2023-01-10T13:05:19;97438.50;;;13.57;37.08
22580;BME280;11456;47.030;15.396;2023-01-10T13:07:46;97434.69;;;14.28;35.05
22580;BME280;11456;47.030;15.396;2023-01-10T13:10:15;97432.97;;;14.13;36.59
22580;BME280;11456;47.030;15.396;2023-01-10T13:12:43;97421.78;;;13.23;37.04
22580;BME280;11456;47.030;15.396;2023-01-10T13:17:43;97427.69;;;14.65;35.31
22580;BME280;11456;47.030;15.396;2023-01-10T13:20:23;97427.09;;;15.21;34.75
22580;BME280;11456;47.030;15.396;2023-01-10T13:22:51;97435.91;;;13.41;36.71
22580;BME280;11456;47.030;15.396;2023-01-10T13:25:25;97446.31;;;14.60;35.99
22580;BME280;11456;47.030;15.396;2023-01-10T13:28:35;97431.56;;;15.44;33.50
22580;BME280;11456;47.030;15.396;2023-01-10T13:30:42;97443.16;;;16.39;33.48
22580;BME280;11456;47.030;15.396;2023-01-10T13:33:24;97450.09;;;16.41;33.08
22580;BME280;11456;47.030;15.396;2023-01-10T13:35:52;97454.16;;;16.52;32.59
22580;BME280;11456;47.030;15.396;2023-01-10T13:40:59;97462.72;;;15.77;32.86
22580;BME280;11456;47.030;15.396;2023-01-10T13:43:31;97472.56;;;16.14;32.57
22580;BME280;11456;47.030;15.396;2023-01-10T13:51:17;97484.75;;;16.39;33.17
22580;BME280;11456;47.030;15.396;2023-01-10T13:53:50;97479.41;;;16.25;32.38
22580;BME280;11456;47.030;15.396;2023-01-10T13:56:37;97493.75;;;16.19;31.91
22580;BME280;11456;47.030;15.396;2023-01-10T13:59:11;97495.53;;;15.23;32.48
22580;BME280;11456;47.030;15.396;2023-01-10T14:01:57;97498.16;;;15.02;33.62
22580;BME280;11456;47.030;15.396;2023-01-10T14:04:52;97508.16;;;14.79;34.54
22580;BME280;11456;47.030;15.396;2023-01-10T14:07:26;97506.75;;;14.68;33.72
22580;BME280;11456;47.030;15.396;2023-01-10T14:09:57;97505.47;;;13.63;36.46
22580;BME280;11456;47.030;15.396;2023-01-10T14:12:31;97515.03;;;13.43;37.45
22580;BME280;11456;47.030;15.396;2023-01-10T14:15:06;97518.28;;;12.74;36.91
22580;BME280;11456;47.030;15.396;2023-01-10T14:17:33;97514.38;;;12.36;37.81
22580;BME280;11456;47.030;15.396;2023-01-10T14:22:37;97536.84;;;11.78;38.68
22580;BME280;11456;47.030;15.396;2023-01-10T14:25:16;97531.59;;;11.43;39.81
22580;BME280;11456;47.030;15.396;2023-01-10T14:27:45;97555.94;;;11.25;40.45
22580;BME280;11456;47.030;15.396;2023-01-10T14:30:17;97553.75;;;11.29;40.20
22580;BME280;11456;47.030;15.396;2023-01-10T14:32:46;97561.59;;;10.35;42.14
22580;BME280;11456;47.030;15.396;2023-01-10T14:35:17;97573.59;;;10.13;42.12
22580;BME280;11456;47.030;15.396;2023-01-10T14:37:52;97571.41;;;10.26;42.49
22580;BME280;11456;47.030;15.396;2023-01-10T14:42:53;97582.13;;;10.09;43.43
22580;BME280;11456;47.030;15.396;2023-01-10T14:47:47;97590.03;;;9.55;44.52
22580;BME280;11456;47.030;15.396;2023-01-10T14:50:25;97585.03;;;9.33;45.24
22580;BME280;11456;47.030;15.396;2023-01-10T14:52:53;97587.94;;;9.49;44.95